createdAt,value
2019-01-17T00:00:01.199Z,99282.75
2019-01-17T00:02:38.118Z,99275.86
2019-01-17T00:05:18.140Z,99282.30
2019-01-17T00:07:51.862Z,99281.45
2019-01-17T00:10:22.559Z,99277.14
2019-01-17T00:12:50.476Z,99276.69
2019-01-17T00:15:35.382Z,99274.12
2019-01-17T00:18:21.100Z,99278.40
2019-01-17T00:20:49.250Z,99270.25
2019-01-17T00:23:33.709Z,99276.27
2019-01-17T00:26:07.939Z,99277.55
2019-01-17T00:28:41.804Z,99274.98
2019-01-17T00:31:09.908Z,99271.98
2019-01-17T00:33:37.862Z,99271.53
2019-01-17T00:36:08.611Z,99269.41
2019-01-17T00:38:42.385Z,99265.95
2019-01-17T00:41:12.985Z,99267.24
2019-01-17T00:43:43.820Z,99258.22
2019-01-17T00:46:11.730Z,99261.22
2019-01-17T00:48:45.840Z,99256.93
2019-01-17T00:51:13.791Z,99262.50
2019-01-17T00:53:41.702Z,99255.22
2019-01-17T00:56:09.876Z,99256.92
2019-01-17T00:58:43.722Z,99256.92
2019-01-17T01:01:20.713Z,99254.34
2019-01-17T01:03:57.787Z,99247.48
2019-01-17T01:06:43.741Z,99252.64
2019-01-17T01:09:14.321Z,99244.03
2019-01-17T01:11:51.042Z,99242.75
2019-01-17T01:14:18.905Z,99241.45
2019-01-17T01:16:59.301Z,99249.18
2019-01-17T01:19:30.180Z,99248.77
2019-01-17T01:22:14.606Z,99246.18
2019-01-17T01:24:48.505Z,99247.02
2019-01-17T01:27:19.769Z,99243.60
2019-01-17T01:29:50.355Z,99241.45
2019-01-17T01:32:21.315Z,99244.02
2019-01-17T01:35:07.085Z,99243.14
2019-01-17T01:37:51.585Z,99241.44
2019-01-17T01:40:22.393Z,99241.86
2019-01-17T01:42:50.404Z,99253.90
2019-01-17T01:45:34.761Z,99250.03
2019-01-17T01:48:05.664Z,99256.47
2019-01-17T01:50:39.395Z,99251.73
2019-01-17T01:53:05.401Z,99248.73
2019-01-17T01:55:31.408Z,99252.59
2019-01-17T01:57:57.635Z,99252.59
2019-01-17T02:00:23.648Z,99251.72
2019-01-17T02:02:49.615Z,99253.87
2019-01-17T02:05:15.961Z,99207.56
2019-01-17T02:07:42.096Z,99241.86
2019-01-17T02:10:09.698Z,99247.84
2019-01-17T02:12:35.945Z,99246.14
2019-01-17T02:15:03.949Z,99250.00
2019-01-17T02:17:30.033Z,99243.14
2019-01-17T02:19:56.455Z,99243.14
2019-01-17T02:22:22.460Z,99242.28
2019-01-17T02:24:48.485Z,99247.85
2019-01-17T02:27:14.609Z,99252.58
2019-01-17T02:29:40.730Z,99244.85
2019-01-17T02:32:06.771Z,99240.56
2019-01-17T02:34:32.954Z,99243.97
2019-01-17T02:36:59.082Z,99247.84
2019-01-17T02:39:25.012Z,99248.30
2019-01-17T02:41:51.280Z,99247.41
2019-01-17T02:44:17.411Z,99248.70
2019-01-17T02:46:43.566Z,99242.67
2019-01-17T02:49:09.691Z,99246.99
2019-01-17T02:51:35.633Z,99243.12
2019-01-17T02:54:01.750Z,99240.97
2019-01-17T02:56:27.926Z,99249.56
2019-01-17T02:58:53.878Z,99246.12
2019-01-17T03:01:19.963Z,99241.83
2019-01-17T03:03:46.153Z,99249.11
2019-01-17T03:06:12.070Z,99251.27
2019-01-17T03:08:38.190Z,99249.11
2019-01-17T03:11:04.594Z,99247.39
2019-01-17T03:13:30.603Z,99256.00
2019-01-17T03:15:56.831Z,99255.53
2019-01-17T03:18:23.147Z,99258.98
2019-01-17T03:20:49.198Z,99245.22
2019-01-17T03:23:15.191Z,99246.97
2019-01-17T03:25:41.453Z,99247.41
2019-01-17T03:28:07.564Z,99252.15
2019-01-17T03:30:33.611Z,99249.57
2019-01-17T03:32:59.777Z,99245.26
2019-01-17T03:35:25.891Z,99247.84
2019-01-17T03:37:51.908Z,99242.27
2019-01-17T03:40:18.277Z,99235.41
2019-01-17T03:42:44.401Z,99234.96
2019-01-17T03:45:12.132Z,99237.12
2019-01-17T03:47:38.518Z,99237.98
2019-01-17T03:50:07.977Z,99234.13
2019-01-17T03:52:34.071Z,99231.09
2019-01-17T03:55:00.334Z,99228.97
2019-01-17T03:57:26.558Z,99221.23
2019-01-17T03:59:52.665Z,99232.83
2019-01-17T04:02:18.857Z,99227.23
2019-01-17T04:04:44.788Z,99225.13
2019-01-17T04:07:10.805Z,99223.39
2019-01-17T04:09:37.175Z,99219.12
2019-01-17T04:12:03.220Z,99215.69
2019-01-17T04:14:29.536Z,99221.27
2019-01-17T04:16:55.618Z,99223.44
2019-01-17T04:19:21.557Z,99214.43
2019-01-17T04:21:47.525Z,99213.16
2019-01-17T04:24:13.563Z,99210.16
2019-01-17T04:26:39.614Z,99214.88
2019-01-17T04:29:05.619Z,99210.16
2019-01-17T04:31:31.648Z,99217.50
2019-01-17T04:33:57.597Z,99217.92
2019-01-17T04:36:23.644Z,99214.94
2019-01-17T04:38:50.070Z,99214.52
2019-01-17T04:41:15.971Z,99216.65
2019-01-17T04:43:41.912Z,99207.22
2019-01-17T04:46:08.256Z,99218.36
2019-01-17T04:48:34.346Z,99210.64
2019-01-17T04:51:00.365Z,99211.50
2019-01-17T04:53:26.482Z,99211.50
2019-01-17T04:55:52.573Z,99212.32
2019-01-17T04:58:18.506Z,99214.47
2019-01-17T05:00:44.819Z,99205.45
2019-01-17T05:03:10.861Z,99213.99
2019-01-17T05:05:36.767Z,99214.44
2019-01-17T05:08:03.097Z,99219.11
2019-01-17T05:10:29.199Z,99221.23
2019-01-17T05:12:55.344Z,99227.23
2019-01-17T05:15:21.559Z,99231.07
2019-01-17T05:17:47.645Z,99239.60
2019-01-17T05:20:14.553Z,99235.32
2019-01-17T05:22:40.619Z,99232.74
2019-01-17T05:25:12.485Z,99239.98
2019-01-17T05:27:35.793Z,99237.39
2019-01-17T05:30:04.193Z,99238.66
2019-01-17T05:32:36.504Z,99238.62
2019-01-17T05:34:58.152Z,99229.20
2019-01-17T05:37:24.319Z,99164.73
2019-01-17T05:39:50.249Z,99233.00
2019-01-17T05:42:16.375Z,99235.92
2019-01-17T05:44:42.579Z,99239.75
2019-01-17T05:47:08.513Z,99238.00
2019-01-17T05:49:34.691Z,99238.84
2019-01-17T05:52:00.995Z,99240.53
2019-01-17T05:54:26.998Z,99243.08
2019-01-17T05:56:52.944Z,99237.10
2019-01-17T05:59:18.928Z,99239.22
2019-01-17T06:01:44.905Z,99235.31
2019-01-17T06:04:11.007Z,99235.31
2019-01-17T06:06:37.309Z,99233.59
2019-01-17T06:09:05.944Z,99236.14
2019-01-17T06:11:31.868Z,99238.27
2019-01-17T06:13:58.014Z,99234.80
2019-01-17T06:16:24.018Z,99228.34
2019-01-17T06:18:50.161Z,99239.87
2019-01-17T06:21:16.223Z,99244.55
2019-01-17T06:23:42.230Z,99245.78
2019-01-17T06:26:08.278Z,99245.73
2019-01-17T06:28:34.398Z,99243.14
2019-01-17T06:31:00.425Z,99249.92
2019-01-17T06:33:26.515Z,99242.19
2019-01-17T06:35:52.570Z,99245.59
2019-01-17T06:38:18.455Z,99246.42
2019-01-17T06:40:44.632Z,99244.66
2019-01-17T06:43:11.116Z,99246.80
2019-01-17T06:45:37.239Z,99240.36
2019-01-17T06:48:03.348Z,99245.89
2019-01-17T06:50:29.666Z,99250.19
2019-01-17T06:52:55.985Z,99248.03
2019-01-17T06:55:21.878Z,99250.61
2019-01-17T06:57:48.229Z,99255.73
2019-01-17T07:00:15.875Z,99260.41
2019-01-17T07:02:42.210Z,99262.52
2019-01-17T07:05:10.692Z,99269.77
2019-01-17T07:07:36.834Z,99266.32
2019-01-17T07:10:06.152Z,99265.41
2019-01-17T07:12:32.378Z,99271.81
2019-01-17T07:14:58.297Z,99270.97
2019-01-17T07:17:24.201Z,99269.66
2019-01-17T07:19:50.427Z,99273.03
2019-01-17T07:22:16.439Z,99280.29
2019-01-17T07:24:42.476Z,99278.16
2019-01-17T07:27:08.702Z,99276.05
2019-01-17T07:29:34.798Z,99284.15
2019-01-17T07:32:00.926Z,99290.55
2019-01-17T07:34:26.935Z,99287.11
2019-01-17T07:36:52.883Z,99291.36
2019-01-17T07:39:18.905Z,99286.64
2019-01-17T07:41:45.077Z,99291.34
2019-01-17T07:44:11.110Z,99188.20
2019-01-17T07:46:37.231Z,99292.20
2019-01-17T07:49:03.483Z,99290.51
2019-01-17T07:51:29.593Z,99285.79
2019-01-17T07:53:55.508Z,99291.77
2019-01-17T07:56:21.798Z,99289.63
2019-01-17T07:58:47.847Z,99290.88
2019-01-17T08:01:15.106Z,99297.29
2019-01-17T08:03:41.270Z,99297.72
2019-01-17T08:06:07.432Z,99303.27
2019-01-17T08:08:33.327Z,99307.08
2019-01-17T08:10:59.491Z,99312.61
2019-01-17T08:13:25.527Z,99306.65
2019-01-17T08:15:51.648Z,99310.91
2019-01-17T08:18:18.818Z,99311.31
2019-01-17T08:20:44.988Z,99300.59
2019-01-17T08:23:11.303Z,99308.27
2019-01-17T08:25:37.427Z,99310.83
2019-01-17T08:28:03.550Z,99314.66
2019-01-17T08:30:29.697Z,99312.52
2019-01-17T08:32:56.087Z,99264.34
2019-01-17T08:35:22.299Z,99313.77
2019-01-17T08:37:48.428Z,99319.72
2019-01-17T08:40:20.951Z,99316.27
2019-01-17T08:42:47.193Z,99315.86
2019-01-17T08:45:13.512Z,99314.56
2019-01-17T08:47:39.604Z,99317.06
2019-01-17T08:50:09.329Z,99321.31
2019-01-17T08:52:35.439Z,99313.20
2019-01-17T08:55:01.871Z,99314.48
2019-01-17T08:57:27.779Z,99308.47
2019-01-17T08:59:53.836Z,99306.30
2019-01-17T09:02:19.940Z,99306.73
2019-01-17T09:04:45.852Z,99307.98
2019-01-17T09:07:11.975Z,99305.84
2019-01-17T09:09:38.163Z,99309.25
2019-01-17T09:12:04.270Z,99302.84
2019-01-17T09:14:30.445Z,99310.13
2019-01-17T09:16:57.676Z,99303.30
2019-01-17T09:19:23.596Z,99304.16
2019-01-17T09:21:49.559Z,99296.48
2019-01-17T09:24:15.738Z,99296.46
2019-01-17T09:26:41.657Z,99296.44
2019-01-17T09:29:07.805Z,99296.44
2019-01-17T09:31:34.139Z,99298.11
2019-01-17T09:34:00.035Z,99307.06
2019-01-17T09:36:26.059Z,99306.61
2019-01-17T09:38:52.208Z,99299.33
2019-01-17T09:41:18.303Z,99300.64
2019-01-17T09:43:44.326Z,99306.19
2019-01-17T09:46:10.611Z,99304.91
2019-01-17T09:48:36.558Z,99300.24
2019-01-17T09:51:02.780Z,99305.84
2019-01-17T09:53:29.017Z,99299.43
2019-01-17T09:55:54.943Z,99303.33
2019-01-17T09:58:20.849Z,99299.12
2019-01-17T10:00:47.127Z,99301.70
2019-01-17T10:03:13.190Z,99300.83
2019-01-17T10:05:39.221Z,99304.26
2019-01-17T10:08:05.543Z,99305.55
2019-01-17T10:10:31.632Z,99295.30
2019-01-17T10:12:57.667Z,99299.16
2019-01-17T10:15:42.800Z,99301.73
2019-01-17T10:18:29.369Z,99304.30
2019-01-17T10:21:05.317Z,99296.61
2019-01-17T10:23:41.080Z,99294.03
2019-01-17T10:26:13.691Z,99298.69
2019-01-17T10:28:49.433Z,99303.84
2019-01-17T10:31:31.822Z,99308.57
2019-01-17T10:34:10.442Z,99298.32
2019-01-17T10:36:49.409Z,99292.79
2019-01-17T10:39:43.462Z,99301.77
2019-01-17T10:42:18.730Z,99300.92
2019-01-17T10:44:51.487Z,99301.36
2019-01-17T10:47:24.254Z,99296.27
2019-01-17T10:50:02.363Z,99308.66
2019-01-17T10:52:48.975Z,99302.77
2019-01-17T10:55:24.442Z,99295.52
2019-01-17T10:57:54.423Z,99301.56
2019-01-17T11:00:38.945Z,99299.84
2019-01-17T11:03:11.615Z,99300.70
2019-01-17T11:05:44.081Z,99295.55
2019-01-17T11:08:14.101Z,99291.27
2019-01-17T11:10:49.921Z,99292.11
2019-01-17T11:13:38.015Z,99295.97
2019-01-17T11:16:16.850Z,99295.55
2019-01-17T11:19:04.883Z,99289.11
2019-01-17T11:21:40.347Z,99293.34
2019-01-17T11:24:41.870Z,99292.48
2019-01-17T11:27:41.739Z,99289.92
2019-01-17T11:30:14.391Z,99295.06
2019-01-17T11:32:55.668Z,99289.96
2019-01-17T11:35:31.159Z,99290.80
2019-01-17T11:38:03.880Z,99285.25
2019-01-17T11:40:39.853Z,99287.34
2019-01-17T11:43:12.549Z,99285.99
2019-01-17T11:45:45.398Z,99287.26
2019-01-17T11:48:15.091Z,99285.98
2019-01-17T11:50:51.020Z,99283.87
2019-01-17T11:53:29.745Z,99283.45
2019-01-17T11:56:11.042Z,99282.64
2019-01-17T11:58:40.753Z,99283.95
2019-01-17T12:01:24.016Z,99279.28
2019-01-17T12:03:56.825Z,99277.19
2019-01-17T12:06:22.940Z,99275.91
2019-01-17T12:08:49.168Z,99277.59
2019-01-17T12:11:15.055Z,99274.17
2019-01-17T12:13:40.996Z,99269.50
2019-01-17T12:16:07.269Z,99273.75
2019-01-17T12:18:33.415Z,99274.12
2019-01-17T12:20:59.499Z,99273.27
2019-01-17T12:23:25.780Z,99265.98
2019-01-17T12:25:51.847Z,99195.94
2019-01-17T12:28:17.998Z,99263.80
2019-01-17T12:30:44.004Z,99265.96
2019-01-17T12:33:09.953Z,99268.08
2019-01-17T12:35:35.847Z,99261.25
2019-01-17T12:38:02.021Z,99258.67
2019-01-17T12:40:28.058Z,99259.97
2019-01-17T12:42:53.999Z,99190.83
2019-01-17T12:45:20.358Z,99258.70
2019-01-17T12:47:46.314Z,99253.53
2019-01-17T12:50:14.362Z,99250.93
2019-01-17T12:52:40.602Z,99256.45
2019-01-17T12:55:07.930Z,99253.03
2019-01-17T12:57:33.976Z,99258.55
2019-01-17T13:00:00.270Z,99248.67
2019-01-17T13:02:26.566Z,99258.91
2019-01-17T13:04:52.480Z,99254.20
2019-01-17T13:07:18.678Z,99258.02
2019-01-17T13:09:44.630Z,99255.41
2019-01-17T13:12:10.650Z,99253.67
2019-01-17T13:14:37.027Z,99252.36
2019-01-17T13:17:03.134Z,99259.55
2019-01-17T13:19:29.310Z,99263.76
2019-01-17T13:21:55.583Z,99263.70
2019-01-17T13:24:21.670Z,99260.67
2019-01-17T13:26:47.715Z,99261.95
2019-01-17T13:29:13.990Z,99261.95
2019-01-17T13:31:39.975Z,99261.95
2019-01-17T13:34:06.036Z,99267.46
2019-01-17T13:36:32.464Z,99270.88
2019-01-17T13:38:58.454Z,99272.16
2019-01-17T13:41:24.398Z,99264.01
2019-01-17T13:43:50.575Z,99264.88
2019-01-17T13:46:16.606Z,99270.88
2019-01-17T13:48:42.663Z,99274.73
2019-01-17T13:51:08.838Z,99273.41
2019-01-17T13:53:34.868Z,99269.55
2019-01-17T13:56:00.992Z,99271.20
2019-01-17T13:58:27.281Z,99267.73
2019-01-17T14:00:53.416Z,99269.00
2019-01-17T14:03:19.641Z,99271.12
2019-01-17T14:05:45.895Z,99270.66
2019-01-17T14:08:11.834Z,99269.37
2019-01-17T14:10:37.876Z,99264.25
2019-01-17T14:13:04.261Z,99271.98
2019-01-17T14:15:30.368Z,99271.55
2019-01-17T14:17:56.360Z,99268.52
2019-01-17T14:20:22.631Z,99272.20
2019-01-17T14:22:48.726Z,99272.20
2019-01-17T14:25:15.861Z,99282.75
2019-01-17T14:27:42.135Z,99284.80
2019-01-17T14:30:17.865Z,99283.00
2019-01-17T14:32:44.038Z,99283.00
2019-01-17T14:35:10.246Z,99284.72
2019-01-17T14:37:36.420Z,99287.28
2019-01-17T14:40:04.796Z,99293.23
2019-01-17T14:42:30.719Z,99290.67
2019-01-17T14:44:56.843Z,99301.30
2019-01-17T14:47:22.973Z,99304.27
2019-01-17T14:49:49.003Z,99305.88
2019-01-17T14:52:14.963Z,99310.13
2019-01-17T14:54:41.399Z,99315.67
2019-01-17T14:57:07.623Z,99311.80
2019-01-17T14:59:33.687Z,99308.75
2019-01-17T15:01:59.770Z,99315.56
2019-01-17T15:04:25.831Z,99319.38
2019-01-17T15:06:51.835Z,99327.02
2019-01-17T15:09:18.051Z,99324.46
2019-01-17T15:11:44.088Z,99329.98
2019-01-17T15:14:10.147Z,99329.98
2019-01-17T15:16:36.332Z,99331.23
2019-01-17T15:19:02.643Z,99326.92
2019-01-17T15:21:28.604Z,99334.97
2019-01-17T15:23:54.878Z,99331.08
2019-01-17T15:26:20.811Z,99330.61
2019-01-17T15:28:46.786Z,99337.42
2019-01-17T15:31:13.078Z,99333.91
2019-01-17T15:33:39.114Z,99339.42
2019-01-17T15:36:05.358Z,99339.84
2019-01-17T15:38:31.588Z,99345.73
2019-01-17T15:40:57.576Z,99339.81
2019-01-17T15:43:23.643Z,99349.57
2019-01-17T15:45:50.037Z,99348.29
2019-01-17T15:48:15.964Z,99341.06
2019-01-17T15:50:41.997Z,99344.89
2019-01-17T15:53:11.346Z,99352.97
2019-01-17T15:55:37.466Z,99348.23
2019-01-17T15:58:03.568Z,99348.21
2019-01-17T16:00:30.066Z,99344.81
2019-01-17T16:02:56.160Z,99350.73
2019-01-17T16:05:22.642Z,99352.83
2019-01-17T16:07:48.857Z,99307.75
2019-01-17T16:10:15.393Z,99344.65
2019-01-17T16:12:41.629Z,99335.18
2019-01-17T16:15:10.826Z,99338.11
2019-01-17T16:17:36.826Z,99345.34
2019-01-17T16:20:06.489Z,99344.04
2019-01-17T16:22:32.745Z,99331.23
2019-01-17T16:24:58.653Z,99340.20
2019-01-17T16:27:24.605Z,99338.08
2019-01-17T16:29:50.859Z,99340.67
2019-01-17T16:32:16.997Z,99350.48
2019-01-17T16:34:42.946Z,99350.02
2019-01-17T16:37:09.171Z,99349.52
2019-01-17T16:39:35.190Z,99350.80
2019-01-17T16:42:01.531Z,99350.86
2019-01-17T16:44:28.156Z,99354.34
2019-01-17T16:46:54.067Z,99362.02
2019-01-17T16:49:19.996Z,99363.29
2019-01-17T16:51:46.324Z,99358.13
2019-01-17T16:54:12.389Z,99357.66
2019-01-17T16:56:38.400Z,99358.91
2019-01-17T16:59:04.570Z,99368.22
2019-01-17T17:01:30.602Z,99372.90
2019-01-17T17:03:56.604Z,99365.58
2019-01-17T17:06:23.085Z,99364.24
2019-01-17T17:08:49.016Z,99375.24
2019-01-17T17:11:15.030Z,99377.67
2019-01-17T17:13:41.103Z,99375.52
2019-01-17T17:16:07.247Z,99371.26
2019-01-17T17:18:33.164Z,99380.60
2019-01-17T17:20:59.257Z,99365.69
2019-01-17T17:23:25.302Z,99365.31
2019-01-17T17:25:51.248Z,99359.36
2019-01-17T17:28:17.367Z,99367.52
2019-01-17T17:30:43.619Z,99374.34
2019-01-17T17:33:09.627Z,99372.19
2019-01-17T17:35:36.237Z,99364.94
2019-01-17T17:38:02.372Z,99377.23
2019-01-17T17:40:28.641Z,99375.52
2019-01-17T17:42:54.855Z,99372.53
2019-01-17T17:45:20.979Z,99369.98
2019-01-17T17:47:46.999Z,99373.75
2019-01-17T17:50:14.835Z,99377.08
2019-01-17T17:52:41.168Z,99371.10
2019-01-17T17:55:10.080Z,99380.02
2019-01-17T17:57:36.365Z,99388.11
2019-01-17T18:00:07.246Z,99381.16
2019-01-17T18:02:33.712Z,99391.78
2019-01-17T18:04:59.716Z,99394.27
2019-01-17T18:07:25.630Z,99383.55
2019-01-17T18:09:51.575Z,99389.06
2019-01-17T18:12:17.659Z,99384.39
2019-01-17T18:14:43.570Z,99389.53
2019-01-17T18:17:09.788Z,99386.58
2019-01-17T18:19:36.100Z,99394.23
2019-01-17T18:22:02.249Z,99389.94
2019-01-17T18:24:28.402Z,99386.08
2019-01-17T18:26:54.525Z,99387.79
2019-01-17T18:29:20.473Z,99394.14
2019-01-17T18:31:46.509Z,99391.59
2019-01-17T18:34:12.611Z,99390.72
2019-01-17T18:36:38.637Z,99390.64
2019-01-17T18:39:07.949Z,99405.97
2019-01-17T18:41:34.178Z,99399.08
2019-01-17T18:44:00.092Z,99393.10
2019-01-17T18:46:27.028Z,99405.83
2019-01-17T18:48:53.226Z,99403.72
2019-01-17T18:51:19.357Z,99415.20
2019-01-17T18:53:45.288Z,99408.82
2019-01-17T18:56:11.590Z,99420.78
2019-01-17T18:58:37.643Z,99421.08
2019-01-17T19:01:03.870Z,99427.83
2019-01-17T19:03:30.047Z,99423.90
2019-01-17T19:05:56.070Z,99416.03
2019-01-17T19:08:22.121Z,99425.10
2019-01-17T19:10:48.431Z,99431.08
2019-01-17T19:13:14.481Z,99424.27
2019-01-17T19:15:40.746Z,99437.46
2019-01-17T19:18:07.114Z,99434.88
2019-01-17T19:20:33.215Z,99431.88
2019-01-17T19:22:59.260Z,99431.05
2019-01-17T19:25:25.438Z,99434.03
2019-01-17T19:27:51.440Z,99434.44
2019-01-17T19:30:22.586Z,99429.80
2019-01-17T19:32:48.714Z,99432.83
2019-01-17T19:35:14.934Z,99441.46
2019-01-17T19:37:41.168Z,99442.77
2019-01-17T19:40:15.609Z,99435.45
2019-01-17T19:42:41.688Z,99437.13
2019-01-17T19:45:09.923Z,99440.55
2019-01-17T19:47:36.411Z,99438.51
2019-01-17T19:50:06.131Z,99433.03
2019-01-17T19:52:32.091Z,99438.17
2019-01-17T19:54:58.262Z,99443.75
2019-01-17T19:57:24.191Z,99444.08
2019-01-17T19:59:50.836Z,99444.42
2019-01-17T20:02:17.119Z,99443.47
2019-01-17T20:04:43.177Z,99431.11
2019-01-17T20:07:09.183Z,99448.55
2019-01-17T20:09:35.374Z,99447.23
2019-01-17T20:12:01.420Z,99438.70
2019-01-17T20:14:27.334Z,99385.52
2019-01-17T20:16:53.445Z,99447.59
2019-01-17T20:19:19.582Z,99445.02
2019-01-17T20:21:45.620Z,99442.42
2019-01-17T20:24:11.716Z,99447.05
2019-01-17T20:26:37.737Z,99457.70
2019-01-17T20:29:03.886Z,99457.63
2019-01-17T20:31:29.869Z,99404.42
2019-01-17T20:33:55.830Z,99463.45
2019-01-17T20:36:21.831Z,99462.15
2019-01-17T20:38:48.044Z,99465.94
2019-01-17T20:41:14.171Z,99466.41
2019-01-17T20:43:40.120Z,99473.63
2019-01-17T20:46:06.276Z,99470.23
2019-01-17T20:48:32.305Z,99472.28
2019-01-17T20:50:58.358Z,99476.14
2019-01-17T20:53:24.515Z,99420.48
2019-01-17T20:55:50.550Z,99476.18
2019-01-17T20:58:18.467Z,99482.19
2019-01-17T21:00:48.356Z,99474.17
2019-01-17T21:03:15.929Z,99478.08
2019-01-17T21:05:41.869Z,99479.79
2019-01-17T21:08:08.187Z,99470.45
2019-01-17T21:10:34.098Z,99474.65
2019-01-17T21:13:00.126Z,99475.02
2019-01-17T21:15:26.429Z,99481.03
2019-01-17T21:17:52.348Z,99478.91
2019-01-17T21:20:18.790Z,99481.50
2019-01-17T21:22:45.069Z,99485.77
2019-01-17T21:25:17.293Z,99480.16
2019-01-17T21:27:43.313Z,99486.97
2019-01-17T21:30:17.994Z,99481.47
2019-01-17T21:32:43.991Z,99478.08
2019-01-17T21:35:10.419Z,99485.73
2019-01-17T21:37:36.749Z,99484.86
2019-01-17T21:40:06.377Z,99492.11
2019-01-17T21:42:32.406Z,99489.09
2019-01-17T21:44:58.403Z,99495.86
2019-01-17T21:47:24.380Z,99485.98
2019-01-17T21:49:50.308Z,99488.97
2019-01-17T21:52:16.471Z,99480.88
2019-01-17T21:54:42.409Z,99485.55
2019-01-17T21:57:08.429Z,99486.78
2019-01-17T21:59:34.600Z,99478.62
2019-01-17T22:02:00.537Z,99486.27
2019-01-17T22:04:26.684Z,99491.70
2019-01-17T22:06:52.871Z,99388.88
2019-01-17T22:09:18.779Z,99486.12
2019-01-17T22:11:44.687Z,99486.12
2019-01-17T22:14:10.900Z,99495.97
2019-01-17T22:16:36.823Z,99494.25
2019-01-17T22:19:03.009Z,99498.95
2019-01-17T22:21:31.088Z,99496.04
2019-01-17T22:23:57.048Z,99502.05
2019-01-17T22:26:22.954Z,99502.09
2019-01-17T22:28:49.037Z,99503.41
2019-01-17T22:31:15.048Z,99502.16
2019-01-17T22:33:41.003Z,99502.56
2019-01-17T22:36:07.184Z,99511.09
2019-01-17T22:38:33.118Z,99506.06
2019-01-17T22:40:59.166Z,99508.62
2019-01-17T22:43:26.500Z,99511.97
2019-01-17T22:45:52.559Z,99517.91
2019-01-17T22:48:18.595Z,99513.17
2019-01-17T22:50:44.698Z,99525.12
2019-01-17T22:53:10.728Z,99527.28
2019-01-17T22:55:36.671Z,99526.05
2019-01-17T22:58:03.046Z,99532.46
2019-01-17T23:00:40.419Z,99534.65
2019-01-17T23:03:06.794Z,99526.16
2019-01-17T23:05:32.703Z,99529.59
2019-01-17T23:07:58.745Z,99536.87
2019-01-17T23:10:25.006Z,99532.17
2019-01-17T23:12:51.151Z,99536.41
2019-01-17T23:15:17.172Z,99533.48
2019-01-17T23:17:43.445Z,99536.95
2019-01-17T23:20:09.872Z,99530.61
2019-01-17T23:22:35.936Z,99538.30
2019-01-17T23:25:03.518Z,99531.48
2019-01-17T23:27:29.406Z,99532.80
2019-01-17T23:29:55.340Z,99534.04
2019-01-17T23:32:21.442Z,99530.97
2019-01-17T23:34:47.403Z,99527.55
2019-01-17T23:37:13.412Z,99525.36
2019-01-17T23:39:39.409Z,99526.63
2019-01-17T23:42:05.435Z,99527.03
2019-01-17T23:44:31.502Z,99525.28
2019-01-17T23:46:57.917Z,99522.22
2019-01-17T23:49:24.061Z,99525.20
2019-01-17T23:51:50.030Z,99529.03
2019-01-17T23:54:16.176Z,99535.85
2019-01-17T23:56:42.128Z,99542.63
2019-01-17T23:59:08.041Z,99539.13
